地図

経路データ

SID SEASON NUMBER BASIN SUBBASIN NAME ISO_TIME NATURE LAT LON WMO_WIND WMO_PRES WMO_AGENCY TRACK_TYPE DIST2LAND LANDFALL IFLAG USA_AGENCY USA_ATCF_ID USA_LAT USA_LON USA_RECORD USA_STATUS USA_WIND USA_PRES USA_SSHS USA_R34_NE USA_R34_SE USA_R34_SW USA_R34_NW USA_R50_NE USA_R50_SE USA_R50_SW USA_R50_NW USA_R64_NE USA_R64_SE USA_R64_SW USA_R64_NW USA_POCI USA_ROCI USA_RMW USA_EYE TOKYO_LAT TOKYO_LON TOKYO_GRADE TOKYO_WIND TOKYO_PRES TOKYO_R50_DIR TOKYO_R50_LONG TOKYO_R50_SHORT TOKYO_R30_DIR TOKYO_R30_LONG TOKYO_R30_SHORT TOKYO_LAND CMA_LAT CMA_LON CMA_CAT CMA_WIND CMA_PRES HKO_LAT HKO_LON HKO_CAT HKO_WIND HKO_PRES NEWDELHI_LAT NEWDELHI_LON NEWDELHI_GRADE NEWDELHI_WIND NEWDELHI_PRES NEWDELHI_CI NEWDELHI_DP NEWDELHI_POCI REUNION_LAT REUNION_LON REUNION_TYPE REUNION_WIND REUNION_PRES REUNION_TNUM REUNION_CI REUNION_RMW REUNION_R34_NE REUNION_R34_SE REUNION_R34_SW REUNION_R34_NW REUNION_R50_NE REUNION_R50_SE REUNION_R50_SW REUNION_R50_NW REUNION_R64_NE REUNION_R64_SE REUNION_R64_SW REUNION_R64_NW BOM_LAT BOM_LON BOM_TYPE BOM_WIND BOM_PRES BOM_TNUM BOM_CI BOM_RMW BOM_R34_NE BOM_R34_SE BOM_R34_SW BOM_R34_NW BOM_R50_NE BOM_R50_SE BOM_R50_SW BOM_R50_NW BOM_R64_NE BOM_R64_SE BOM_R64_SW BOM_R64_NW BOM_ROCI BOM_POCI BOM_EYE BOM_POS_METHOD BOM_PRES_METHOD NADI_LAT NADI_LON NADI_CAT NADI_WIND NADI_PRES WELLINGTON_LAT WELLINGTON_LON WELLINGTON_WIND WELLINGTON_PRES DS824_LAT DS824_LON DS824_STAGE DS824_WIND DS824_PRES TD9636_LAT TD9636_LON TD9636_STAGE TD9636_WIND TD9636_PRES TD9635_LAT TD9635_LON TD9635_WIND TD9635_PRES TD9635_ROCI NEUMANN_LAT NEUMANN_LON NEUMANN_CLASS NEUMANN_WIND NEUMANN_PRES MLC_LAT MLC_LON MLC_CLASS MLC_WIND MLC_PRES USA_GUST BOM_GUST BOM_GUST_PER REUNION_GUST REUNION_GUST_PER USA_SEAHGT USA_SEARAD_NE USA_SEARAD_SE USA_SEARAD_SW USA_SEARAD_NW STORM_SPEED STORM_DIR
1981337S11133 1982 111 SI WA AMELIA 1981-12-03 09:00:00 TS -11.3351 133.115 spur-other 24 15 ______________ -1 7 296
1981337S11133 1982 111 SI WA AMELIA 1981-12-03 11:00:00 TS -11.2324 132.899 spur-other 22 22 ______________ -1 7 294
1981337S11133 1982 111 SI WA AMELIA 1981-12-03 12:00:00 TS -11.2000 132.800 spur-other 24 15 ____________O_ -1 -11.2000 132.800 TC 30 999 5 274
1981337S11133 1982 111 SI WA AMELIA 1981-12-03 15:00:00 TS -11.2125 132.570 spur-other 15 0 ____________P_ -1 -11.2425 132.580 TC 30 999 4 259
1981337S11133 1982 111 SI WA AMELIA 1981-12-03 17:00:00 TS -11.2671 132.450 spur-other 0 0 ____________P_ -1 -11.2783 132.453 TC 30 999 4 243
1981337S11133 1982 111 SI WA AMELIA 1981-12-03 18:00:00 TS -11.3000 132.400 spur-other 0 0 ____________O_ -1 -11.3000 132.400 TC 30 1000 3 237
1981337S11133 1982 111 SI WA AMELIA 1981-12-03 20:00:00 TS -11.3533 132.318 spur-other 0 0 ____________P_ -1 -11.3533 132.318 TC 30 1000 3 233
1981337S11133 1982 111 SI WA AMELIA 1981-12-03 21:00:00 TS -11.3850 132.285 spur-other 0 0 ____________P_ -1 -11.3850 132.285 TC 30 1000 3 220
1981337S11133 1982 111 SI WA AMELIA 1981-12-03 23:00:00 TS -11.4583 132.228 spur-other 0 0 ____________P_ -1 -11.4583 132.228 TC 30 1000 3 213
1981337S11133 1982 111 SI WA AMELIA 1981-12-04 00:00:00 TS -11.5000 132.200 spur-other 0 0 ____________O_ -1 -11.5000 132.200 TC 30 1000 3 200
1981337S11133 1982 111 SI WA AMELIA 1981-12-04 02:00:00 TS -11.5974 132.177 spur-other 11 11 ____________P_ -1 -11.5974 132.177 TC 30 1000 3 192
1981337S11133 1982 111 SI WA AMELIA 1981-12-04 03:00:00 TS -11.6498 132.160 spur-other 11 11 ____________P_ -1 -11.6498 132.160 TC 30 1000 4 211
1981337S11133 1982 111 SI WA AMELIA 1981-12-04 05:00:00 TS -11.7530 132.079 spur-other 33 33 ____________P_ -1 -11.7530 132.079 TC 30 1000 4 226
1981337S11133 1982 111 SI WA AMELIA 1981-12-04 06:00:00 TS -11.8000 132.000 spur-other 35 35 ____________O_ -1 -11.8000 132.000 TC 30 1000 8 249
1981337S11133 1982 111 SI WA AMELIA 1981-12-04 08:00:00 TS -11.8910 131.719 spur-other 40 35 ____________P_ -1 -11.8910 131.719 TC 30 1000 9 254
1981337S11133 1982 111 SI WA AMELIA 1981-12-04 09:00:00 TS -11.9302 131.545 spur-other 31 11 ____________P_ -1 -11.9302 131.545 TC 30 1000 11 260
1981337S11133 1982 111 SI WA AMELIA 1981-12-04 11:00:00 TS -11.9865 131.176 spur-other 15 11 ____________P_ -1 -11.9865 131.176 TC 30 1000 11 263
1981337S11133 1982 111 SI WA AMELIA 1981-12-04 12:00:00 TS -12.0000 131.000 spur-other 11 11 ____________O_ -1 -12.0000 131.000 TC 30 1000 8 267
1981337S11133 1982 111 SI WA AMELIA 1981-12-04 15:00:00 TS -12.0096 130.638 spur-other 22 22 ____________P_ -1 -12.0096 130.638 TC 30 1000 7 274
1981337S11133 1982 111 SI WA AMELIA 1981-12-04 17:00:00 TS -11.9528 130.368 spur-other 22 11 ____________P_ -1 -11.9528 130.368 TC 30 1000 9 284
1981337S11133 1982 111 SI WA AMELIA 1981-12-04 18:00:00 TS -11.9000 130.200 spur-other 11 0 ____________O_ -1 -11.9000 130.200 TC 30 1000 14 291
1981337S11133 1982 111 SI WA AMELIA 1981-12-04 20:00:00 TS -11.7074 129.700 spur-other 44 44 ____________P_ -1 -11.7074 129.700 TC 31 999 16 292
1981337S11133 1982 111 SI WA AMELIA 1981-12-04 21:00:00 TS -11.5931 129.427 spur-other 77 77 ____________P_ -1 -11.5931 129.427 TC 32 999 17 293
1981337S11133 1982 111 SI WA AMELIA 1981-12-04 23:00:00 TS -11.3791 128.911 spur-other 131 131 ____________P_ -1 -11.3791 128.911 TC 34 998 15 292
1981337S11133 1982 111 SI WA AMELIA 1981-12-05 00:00:00 TS -11.3000 128.700 spur-other 154 154 ____________O_ -1 -11.3000 128.700 TC 35 998 9 288
1981337S11133 1982 111 SI WA AMELIA 1981-12-05 02:00:00 TS -11.2414 128.465 spur-other 177 177 ____________P_ -1 -11.2414 128.465 TC 35 997 6 281
1981337S11133 1982 111 SI WA AMELIA 1981-12-05 03:00:00 TS -11.2396 128.390 spur-other 188 188 ____________P_ -1 -11.2396 128.390 TC 35 997 4 261
1981337S11133 1982 111 SI WA AMELIA 1981-12-05 05:00:00 TS -11.2727 128.269 spur-other 197 197 ____________P_ -1 -11.2727 128.269 TC 35 996 4 252
1981337S11133 1982 111 SI WA AMELIA 1981-12-05 06:00:00 TS -11.3000 128.200 spur-other 208 208 ____________O_ -1 -11.3000 128.200 TC 35 996 6 257
1981337S11133 1982 111 SI WA AMELIA 1981-12-05 08:00:00 TS -11.3400 127.977 spur-other 230 230 ____________P_ -1 -11.3400 127.977 TC 35 996 7 258
1981337S11133 1982 111 SI WA AMELIA 1981-12-05 09:00:00 TS -11.3700 127.857 spur-other 240 240 ____________P_ -1 -11.3700 127.857 TC 35 996 7 253
1981337S11133 1982 111 SI WA AMELIA 1981-12-05 11:00:00 TS -11.4500 127.616 spur-other 263 261 ____________P_ -1 -11.4500 127.616 TC 35 996 7 250
1981337S11133 1982 111 SI WA AMELIA 1981-12-05 12:00:00 TS -11.5000 127.500 spur-other 261 235 ____________O_ -1 -11.5000 127.500 TC 35 996 7 240
1981337S11133 1982 111 SI WA AMELIA 1981-12-05 15:00:00 TS -11.6849 127.192 spur-other 235 223 ____________P_ -1 -11.6849 127.192 TC 35 996 7 236
1981337S11133 1982 111 SI WA AMELIA 1981-12-05 17:00:00 TS -11.8281 126.997 spur-other 223 212 ____________P_ -1 -11.8281 126.997 TC 35 996 7 233
1981337S11133 1982 111 SI WA AMELIA 1981-12-05 18:00:00 TS -11.9000 126.900 spur-other 212 191 ____________O_ -1 -11.9000 126.900 TC 35 996 7 234
1981337S11133 1982 111 SI WA AMELIA 1981-12-05 21:00:00 TS -12.1074 126.607 spur-other 193 184 ____________P_ -1 -12.1074 126.607 TC 35 996 7 235
1981337S11133 1982 111 SI WA AMELIA 1981-12-05 23:00:00 TS -12.2390 126.406 spur-other 187 176 ____________P_ -1 -12.2390 126.406 TC 35 996 7 237
1981337S11133 1982 111 SI WA AMELIA 1981-12-06 00:00:00 TS -12.3000 126.300 spur-other 180 174 ____________O_ -1 -12.3000 126.300 TC 35 997 7 243
1981337S11133 1982 111 SI WA AMELIA 1981-12-06 02:00:00 TS -12.3915 126.096 spur-other 179 179 ____________P_ -1 -12.3915 126.096 TC 35 997 7 246
1981337S11133 1982 111 SI WA AMELIA 1981-12-06 03:00:00 TS -12.4348 125.987 spur-other 179 169 ____________P_ -1 -12.4348 125.987 TC 35 997 8 247
1981337S11133 1982 111 SI WA AMELIA 1981-12-06 05:00:00 TS -12.5354 125.742 spur-other 173 162 ____________P_ -1 -12.5354 125.742 TC 35 997 8 246
1981337S11133 1982 111 SI WA AMELIA 1981-12-06 06:00:00 TS -12.6000 125.600 spur-other 165 159 ____________O_ -1 -12.6000 125.600 TC 35 998 11 242
1981337S11133 1982 111 SI WA AMELIA 1981-12-06 09:00:00 TS -12.8851 125.073 spur-other 163 159 ____________P_ -1 -12.8851 125.073 TC 32 999 12 241
1981337S11133 1982 111 SI WA AMELIA 1981-12-06 12:00:00 TS -13.2000 124.500 spur-other 171 169 ____________O_ -1 -13.2000 124.500 TC 30 1000 12 241
1981337S11133 1982 111 SI WA AMELIA 1981-12-06 15:00:00 TS -13.4800 123.963 spur-other 178 178 ____________P_ -1 -13.4800 123.963 TC 27 1001 11 243
1981337S11133 1982 111 SI WA AMELIA 1981-12-06 18:00:00 TS -13.7000 123.500 spur-other 209 209 ____________O_ -1 -13.7000 123.500 TC 25 1002 8 245
1981337S11133 1982 111 SI WA AMELIA 1981-12-06 21:00:00 TS -13.8145 123.230 spur-other 232 232 ____________P_ -1 -13.8145 123.230 TC 25 1002 6 251
1981337S11133 1982 111 SI WA AMELIA 1981-12-07 00:00:00 TS -13.9000 122.900 spur-other 249 249 ____________O_ -1 -13.9000 122.900 TC 25 1003 9 257
1981337S11133 1982 111 SI WA AMELIA 1981-12-07 03:00:00 TS -14.0334 122.290 spur-other 287 278 ____________P_ -1 -14.0334 122.290 TC 25 1003 14 258
1981337S11133 1982 111 SI WA AMELIA 1981-12-07 06:00:00 TS -14.2000 121.500 spur-other 298 ____________O_ -1 -14.2000 121.500 TC 25 1003 16 258

IBTrACS Databaseについて

本データベースは、米国NOAAが公開する1842年以降の世界の熱帯低気圧のベストトラックデータアーカイブInternational Best Track Archive for Climate Stewardship (IBTrACS)を、ウェブで閲覧しやすい形式に変換したものです。

最終更新日:2021-10-21